createdAt,value
2022-11-06T14:46:03.323Z,100.00
2022-11-06T17:32:30.875Z,100.00
2022-11-06T17:33:32.988Z,100.00
2022-11-06T17:34:37.910Z,100.00
2022-11-06T17:35:40.160Z,100.00
2022-11-06T17:36:45.668Z,100.00
2022-11-06T17:37:47.780Z,100.00
2022-11-06T17:38:52.847Z,100.00
2022-11-06T17:39:57.736Z,100.00
2022-11-06T17:41:02.633Z,100.00
2022-11-06T17:42:07.513Z,100.00
2022-11-06T17:43:10.091Z,100.00
2022-11-06T17:44:16.971Z,100.00
2022-11-06T17:45:19.037Z,100.00
2022-11-06T17:46:23.776Z,100.00
2022-11-06T17:47:31.126Z,100.00
2022-11-06T17:48:37.296Z,100.00
2022-11-06T17:49:41.920Z,100.00
2022-11-06T17:50:58.989Z,100.00
2022-11-06T17:52:03.696Z,100.00
2022-11-06T17:53:05.703Z,100.00
2022-11-06T17:54:10.693Z,100.00
2022-11-06T17:55:15.366Z,100.00
2022-11-06T17:56:17.393Z,100.00
2022-11-06T17:57:24.250Z,100.00
2022-11-06T17:58:26.511Z,100.00
2022-11-06T17:59:31.708Z,100.00
2022-11-06T18:00:36.369Z,100.00
2022-11-06T18:01:41.059Z,100.00
2022-11-06T18:03:00.827Z,100.00
2022-11-06T18:04:09.182Z,100.00
2022-11-06T18:05:14.034Z,100.00
2022-11-06T18:06:16.884Z,100.00
2022-11-06T18:07:21.608Z,100.00
2022-11-06T18:08:26.268Z,100.00
2022-11-06T18:09:31.052Z,100.00
2022-11-06T18:10:33.208Z,100.00
2022-11-06T18:11:38.052Z,100.00
2022-11-06T18:12:40.241Z,100.00
2022-11-06T18:13:45.573Z,100.00
2022-11-06T18:14:50.374Z,100.00
2022-11-06T18:15:53.536Z,100.00
2022-11-06T18:16:58.344Z,100.00
2022-11-06T18:18:05.867Z,100.00
2022-11-06T18:19:12.402Z,100.00
2022-11-06T18:20:17.091Z,100.00
2022-11-06T18:21:19.542Z,100.00
2022-11-06T18:22:24.550Z,100.00
2022-11-06T18:23:26.634Z,100.00
2022-11-06T18:24:31.447Z,100.00
2022-11-06T18:25:36.120Z,100.00
2022-11-06T18:26:38.384Z,100.00
2022-11-06T18:27:43.336Z,100.00
2022-11-06T18:28:45.454Z,100.00
2022-11-06T18:29:50.274Z,100.00
2022-11-06T18:30:52.866Z,100.00
2022-11-06T18:31:57.599Z,100.00
2022-11-06T18:33:05.046Z,100.00
2022-11-06T18:34:07.609Z,100.00
2022-11-06T18:35:12.956Z,100.00
2022-11-06T18:36:16.055Z,100.00
2022-11-06T18:37:20.945Z,100.00
2022-11-06T18:38:23.160Z,100.00
2022-11-06T18:39:28.132Z,100.00
2022-11-06T18:40:32.755Z,100.00
2022-11-06T18:41:38.190Z,100.00
2022-11-06T18:42:42.873Z,100.00
2022-11-06T18:43:45.616Z,100.00
2022-11-06T18:44:50.327Z,100.00
2022-11-06T18:45:52.474Z,100.00
2022-11-06T18:46:57.164Z,100.00
2022-11-06T18:47:59.291Z,100.00
2022-11-06T18:49:06.904Z,100.00
2022-11-06T18:50:10.125Z,100.00
2022-11-06T18:51:27.815Z,100.00
2022-11-06T18:52:56.821Z,100.00
2022-11-06T18:54:04.722Z,100.00
2022-11-06T18:55:08.180Z,100.00
2022-11-06T18:56:13.702Z,100.00
2022-11-06T18:57:18.380Z,100.00
2022-11-06T18:58:21.181Z,100.00
2022-11-06T18:59:25.972Z,100.00
2022-11-06T19:00:28.131Z,100.00
2022-11-06T19:01:34.740Z,100.00
2022-11-06T19:02:39.834Z,100.00
2022-11-06T19:03:45.577Z,100.00
2022-11-06T19:04:53.051Z,100.00
2022-11-06T19:05:55.355Z,100.00
2022-11-06T19:07:00.209Z,100.00
2022-11-06T19:08:02.744Z,100.00
2022-11-06T19:09:08.385Z,100.00
2022-11-06T19:10:12.808Z,100.00
2022-11-06T19:11:18.723Z,100.00
2022-11-06T19:12:21.087Z,100.00
2022-11-06T19:13:26.060Z,100.00
2022-11-06T19:14:30.760Z,100.00
2022-11-06T19:15:33.115Z,100.00
2022-11-06T19:16:38.270Z,100.00
2022-11-06T19:17:43.324Z,100.00
2022-11-06T19:20:14.737Z,100.00
2022-11-06T19:21:17.911Z,100.00
2022-11-06T19:22:22.873Z,100.00
2022-11-06T19:23:28.644Z,100.00
2022-11-06T19:24:32.075Z,100.00
2022-11-06T19:25:36.899Z,100.00
2022-11-06T19:26:41.787Z,100.00
2022-11-06T19:27:44.077Z,100.00
2022-11-06T19:28:54.446Z,100.00
2022-11-06T19:29:59.206Z,100.00
2022-11-06T19:31:01.410Z,100.00
2022-11-06T19:32:06.448Z,100.00
2022-11-06T19:33:09.020Z,100.00
2022-11-06T19:34:16.791Z,100.00
2022-11-06T19:35:21.721Z,100.00
2022-11-06T19:36:26.908Z,100.00
2022-11-06T19:37:32.454Z,100.00
2022-11-06T19:38:37.352Z,100.00
2022-11-06T19:39:42.259Z,100.00
2022-11-06T19:40:53.786Z,100.00
2022-11-06T19:42:01.230Z,100.00
2022-11-06T19:43:07.221Z,100.00
2022-11-06T19:44:12.833Z,100.00
2022-11-06T19:45:15.092Z,100.00
2022-11-06T19:46:25.015Z,100.00
2022-11-06T19:47:34.504Z,100.00
2022-11-06T19:48:37.080Z,100.00
2022-11-06T19:49:41.929Z,100.00
2022-11-06T19:50:59.626Z,100.00
2022-11-06T19:52:42.036Z,100.00
2022-11-06T19:53:30.517Z,100.00
2022-11-06T19:54:35.559Z,100.00
2022-11-06T19:55:39.515Z,100.00
2022-11-06T19:57:28.964Z,100.00
2022-11-06T19:58:09.300Z,100.00
2022-11-06T19:59:14.957Z,100.00
2022-11-06T20:00:17.265Z,100.00
2022-11-06T20:01:23.485Z,100.00
2022-11-06T20:02:25.778Z,100.00
2022-11-06T20:03:30.610Z,100.00
2022-11-06T20:04:33.253Z,100.00
2022-11-06T20:05:39.483Z,100.00
2022-11-06T20:06:47.057Z,100.00
2022-11-06T20:07:49.354Z,100.00
2022-11-06T20:08:54.482Z,100.00
2022-11-06T20:10:02.251Z,100.00
2022-11-06T20:11:07.832Z,100.00
2022-11-06T20:12:10.302Z,100.00
2022-11-06T20:13:16.017Z,100.00
2022-11-06T20:14:21.895Z,100.00
2022-11-06T20:15:24.603Z,100.00
2022-11-06T20:16:29.864Z,100.00
2022-11-06T20:17:34.827Z,100.00
2022-11-06T20:18:37.541Z,100.00
2022-11-06T20:19:42.394Z,100.00
2022-11-06T20:20:44.579Z,100.00
2022-11-06T20:21:52.393Z,100.00
2022-11-06T20:22:57.207Z,100.00
2022-11-06T20:24:02.078Z,100.00
2022-11-06T20:25:04.742Z,100.00
2022-11-06T20:26:13.539Z,100.00
2022-11-06T20:27:18.534Z,100.00
2022-11-06T20:28:20.848Z,100.00
2022-11-06T20:29:25.597Z,100.00
2022-11-06T20:30:30.292Z,100.00
2022-11-06T20:31:32.890Z,100.00
2022-11-06T20:32:37.780Z,100.00
2022-11-06T20:33:43.103Z,100.00
2022-11-06T20:34:47.830Z,100.00
2022-11-06T20:35:50.143Z,100.00
2022-11-06T20:36:58.268Z,100.00
2022-11-06T20:38:00.566Z,100.00
2022-11-06T20:39:06.652Z,100.00
2022-11-06T20:40:09.879Z,100.00
2022-11-06T20:41:15.185Z,100.00
2022-11-06T20:42:20.079Z,100.00
2022-11-06T20:43:24.925Z,100.00
2022-11-06T20:44:27.293Z,100.00
2022-11-06T20:45:37.078Z,100.00
2022-11-06T20:46:41.792Z,100.00
2022-11-06T20:47:43.981Z,100.00
2022-11-06T20:48:49.699Z,100.00
2022-11-06T20:49:54.892Z,100.00
2022-11-06T20:50:57.742Z,100.00
2022-11-06T20:52:14.359Z,100.00
2022-11-06T20:53:17.405Z,100.00
2022-11-06T20:54:22.255Z,100.00
2022-11-06T20:55:24.333Z,100.00
2022-11-06T20:56:29.852Z,100.00
2022-11-06T20:57:32.004Z,100.00
2022-11-06T20:58:37.207Z,100.00
2022-11-06T20:59:39.398Z,100.00
2022-11-06T21:00:44.215Z,100.00
2022-11-06T21:01:49.562Z,100.00
2022-11-06T21:03:00.512Z,100.00
2022-11-06T21:04:06.711Z,100.00
2022-11-06T21:05:09.357Z,100.00
2022-11-06T21:06:14.969Z,100.00
2022-11-06T21:07:22.285Z,97.40
2022-11-06T21:08:28.010Z,98.70
2022-11-06T21:09:32.693Z,95.94
2022-11-06T21:10:37.446Z,96.04
2022-11-06T21:11:42.197Z,96.87
2022-11-06T21:12:47.130Z,97.92
2022-11-06T21:13:51.808Z,99.19
2022-11-06T21:14:56.499Z,99.10
2022-11-06T21:15:59.513Z,96.22
2022-11-06T21:17:05.077Z,95.16
2022-11-06T21:18:07.223Z,94.22
2022-11-06T21:19:11.926Z,93.56
2022-11-06T21:20:22.452Z,93.39
2022-11-06T21:21:29.471Z,88.77
2022-11-06T21:22:34.175Z,87.37
2022-11-06T21:23:39.435Z,86.97
2022-11-06T21:24:44.358Z,87.71
2022-11-06T21:25:46.699Z,87.00
2022-11-06T21:26:54.563Z,88.07
2022-11-06T21:27:56.827Z,87.10
2022-11-06T21:29:02.026Z,87.24
2022-11-06T21:30:08.023Z,87.31
2022-11-06T21:31:11.289Z,85.59
2022-11-06T21:32:15.986Z,87.07
2022-11-06T21:33:18.059Z,87.93
2022-11-06T21:34:23.145Z,87.56
2022-11-06T21:35:25.267Z,86.68
2022-11-06T21:36:31.910Z,87.92
2022-11-06T21:37:36.588Z,87.44
2022-11-06T21:38:41.380Z,90.22
2022-11-06T21:39:46.207Z,88.93
2022-11-06T21:40:48.354Z,86.44
2022-11-06T21:41:53.081Z,91.64
2022-11-06T21:42:55.602Z,92.36
2022-11-06T21:44:00.629Z,91.09
2022-11-06T21:45:02.680Z,88.27
2022-11-06T21:46:09.843Z,86.17
2022-11-06T21:47:14.585Z,86.81
2022-11-06T21:48:32.811Z,90.38
2022-11-06T21:49:41.506Z,91.08
2022-11-06T21:50:43.588Z,91.70
2022-11-06T21:51:48.176Z,88.61
2022-11-06T21:53:08.424Z,88.07
2022-11-06T21:54:26.128Z,90.72
2022-11-06T21:55:43.128Z,89.86
2022-11-06T21:56:50.427Z,89.45
2022-11-06T21:57:52.715Z,89.46
2022-11-06T21:58:59.760Z,89.49
2022-11-06T22:00:01.953Z,91.16
2022-11-06T22:01:07.226Z,91.86
2022-11-06T22:02:13.163Z,92.84
2022-11-06T22:03:16.140Z,92.97
2022-11-06T22:04:20.979Z,91.58
2022-11-06T22:05:23.178Z,91.11
2022-11-06T22:06:29.513Z,90.17
2022-11-06T22:07:34.108Z,91.89
2022-11-06T22:08:41.362Z,91.12
2022-11-06T22:09:46.126Z,92.45
2022-11-06T22:10:48.214Z,93.18
2022-11-06T22:11:53.014Z,95.41
2022-11-06T22:12:55.154Z,95.93
2022-11-06T22:14:01.840Z,96.57
2022-11-06T22:15:07.610Z,93.48
2022-11-06T22:16:11.660Z,95.96
2022-11-06T22:17:16.281Z,94.37
2022-11-06T22:18:18.414Z,94.82
2022-11-06T22:19:23.064Z,97.08
2022-11-06T22:20:25.161Z,97.48
2022-11-06T22:21:32.654Z,95.75
2022-11-06T22:22:34.852Z,97.70
2022-11-06T22:23:42.673Z,98.50
2022-11-06T22:24:47.395Z,98.20
2022-11-06T22:25:49.509Z,99.81
2022-11-06T22:26:56.527Z,98.48
2022-11-06T22:27:58.585Z,98.51
2022-11-06T22:29:05.168Z,100.00
2022-11-06T22:30:08.425Z,100.00
2022-11-06T22:31:13.845Z,100.00
2022-11-06T22:32:18.537Z,100.00
2022-11-06T22:33:20.551Z,100.00
2022-11-06T22:34:25.127Z,100.00
2022-11-06T22:35:29.855Z,99.30
2022-11-06T22:36:32.648Z,98.75
2022-11-06T22:37:37.459Z,99.06
2022-11-06T22:38:43.853Z,100.00
2022-11-06T22:39:50.621Z,100.00
2022-11-06T22:40:53.630Z,97.45
2022-11-06T22:41:58.315Z,95.73
2022-11-06T22:43:00.808Z,96.17
2022-11-06T22:44:06.682Z,98.60
2022-11-06T22:45:09.746Z,97.90
2022-11-06T22:46:16.881Z,96.89
2022-11-06T22:47:21.766Z,100.00
2022-11-06T22:48:23.984Z,98.87
2022-11-06T22:49:28.806Z,98.48
2022-11-06T22:50:30.937Z,99.29
2022-11-06T22:51:36.475Z,100.00
2022-11-06T22:52:38.599Z,99.88
2022-11-06T22:53:46.118Z,100.00
2022-11-06T22:54:48.124Z,100.00
2022-11-06T22:55:57.437Z,100.00
2022-11-06T22:56:59.590Z,99.47
2022-11-06T22:58:04.280Z,100.00
2022-11-06T22:59:08.845Z,100.00
2022-11-06T23:00:15.295Z,100.00
2022-11-06T23:01:21.673Z,100.00
2022-11-06T23:02:26.564Z,100.00
2022-11-06T23:03:30.366Z,100.00
2022-11-06T23:04:35.016Z,99.94
2022-11-06T23:05:39.800Z,100.00
2022-11-06T23:06:44.829Z,100.00
2022-11-06T23:07:47.028Z,100.00
2022-11-06T23:08:54.797Z,100.00
2022-11-06T23:09:56.868Z,100.00
2022-11-06T23:11:02.593Z,100.00
2022-11-06T23:12:05.215Z,100.00
2022-11-06T23:13:09.881Z,100.00
2022-11-06T23:14:11.909Z,100.00
2022-11-06T23:15:16.529Z,100.00
2022-11-06T23:16:41.724Z,100.00
2022-11-06T23:17:46.630Z,100.00
2022-11-06T23:18:48.738Z,100.00
2022-11-06T23:19:53.942Z,100.00
2022-11-06T23:20:58.770Z,100.00
2022-11-06T23:22:16.222Z,100.00
2022-11-06T23:23:20.845Z,100.00
2022-11-06T23:24:25.451Z,100.00
2022-11-06T23:25:30.814Z,100.00
2022-11-06T23:26:33.021Z,100.00
2022-11-06T23:27:38.794Z,100.00
2022-11-06T23:28:41.305Z,100.00
2022-11-06T23:29:46.054Z,100.00
2022-11-06T23:30:48.165Z,100.00
2022-11-06T23:31:52.849Z,100.00
2022-11-06T23:32:57.472Z,100.00
2022-11-06T23:33:59.652Z,100.00
2022-11-06T23:35:05.050Z,100.00
2022-11-06T23:36:09.091Z,100.00
2022-11-06T23:37:14.005Z,100.00
2022-11-06T23:38:16.026Z,100.00
2022-11-06T23:39:20.750Z,100.00
2022-11-06T23:40:28.303Z,100.00
2022-11-06T23:41:46.096Z,100.00
2022-11-06T23:42:51.810Z,100.00
2022-11-06T23:43:53.866Z,100.00
2022-11-06T23:45:10.938Z,100.00
2022-11-06T23:46:18.853Z,100.00
2022-11-06T23:47:23.472Z,100.00
2022-11-06T23:48:28.077Z,100.00
2022-11-06T23:49:30.283Z,100.00
2022-11-06T23:50:35.198Z,100.00
2022-11-06T23:51:37.222Z,100.00
2022-11-06T23:52:41.869Z,100.00
2022-11-06T23:53:43.889Z,100.00
2022-11-06T23:54:48.552Z,100.00
2022-11-06T23:55:53.246Z,100.00
2022-11-06T23:56:57.903Z,100.00
2022-11-06T23:57:59.952Z,100.00
2022-11-06T23:59:04.650Z,100.00
